Time;durP1;ratioP1;P1;durP2;ratioP2;P2;SDS_P1;SDS_P2;PMS_P1;PMS_P2;Temp;Humidity;BMP_temperature;BMP_pressure;BME280_temperature;BME280_humidity;BME280_pressure;Samples;Min_cycle;Max_cycle;Signal;HPM_P1;HPM_P2
2021/08/22 00:01:34;;;;;;;;;;;19.40;99.90;;;;;;5067551;28;19924;-68
2021/08/22 00:04:00;;;;;;;;;;;19.40;99.90;;;;;;5068261;28;20258;-69
2021/08/22 00:06:28;;;;;;;;;;;19.40;99.90;;;;;;5067226;28;19928;-70
2021/08/22 00:08:55;;;;;;;;;;;19.40;99.90;;;;;;5068100;28;19928;-68
2021/08/22 00:11:21;;;;;;;;;;;19.40;99.90;;;;;;5067997;28;19986;-70
2021/08/22 00:13:48;;;;;;;;;;;19.30;99.90;;;;;;5067632;28;19924;-72
2021/08/22 00:16:15;;;;;;;;;;;19.40;99.90;;;;;;5067611;28;19971;-66
2021/08/22 00:18:41;;;;;;;;;;;19.40;99.90;;;;;;5067726;28;19924;-68
2021/08/22 00:21:08;;;;;;;;;;;19.40;99.90;;;;;;5067888;28;19928;-69
2021/08/22 00:23:36;;;;;;;;;;;19.40;99.90;;;;;;5067871;28;20300;-69
2021/08/22 00:26:03;;;;;;;;;;;19.40;99.90;;;;;;5067532;28;19973;-64
2021/08/22 00:28:29;;;;;;;;;;;19.30;99.90;;;;;;5066521;28;19924;-68
2021/08/22 00:30:56;;;;;;;;;;;19.30;99.90;;;;;;5068154;28;19931;-68
2021/08/22 00:33:23;;;;;;;;;;;19.30;99.90;;;;;;5066561;28;19924;-64
2021/08/22 00:35:49;;;;;;;;;;;19.30;99.90;;;;;;5067771;28;20369;-66
2021/08/22 00:38:16;;;;;;;;;;;19.30;99.90;;;;;;5067420;28;20377;-69
2021/08/22 00:40:44;;;;;;;;;;;19.30;99.90;;;;;;5067167;28;20061;-66
2021/08/22 00:43:11;;;;;;;;;;;19.30;99.90;;;;;;5067992;28;20701;-66
2021/08/22 00:45:38;;;;;;;;;;;19.30;99.90;;;;;;5066704;28;19920;-67
2021/08/22 00:48:05;;;;;;;;;;;19.30;99.90;;;;;;5067729;28;19924;-67
2021/08/22 00:50:32;;;;;;;;;;;19.30;99.90;;;;;;5064596;28;20372;-71
2021/08/22 00:53:00;;;;;;;;;;;19.30;99.90;;;;;;5067083;28;19924;-70
2021/08/22 00:55:27;;;;;;;;;;;19.30;99.90;;;;;;5067750;28;19920;-68
2021/08/22 00:57:55;;;;;;;;;;;19.30;99.90;;;;;;5067846;28;19974;-71
2021/08/22 01:00:22;;;;;;;;;;;19.30;99.90;;;;;;5067573;28;19967;-68
2021/08/22 01:02:52;;;;;;;;;;;19.30;99.90;;;;;;5066982;28;20023;-68
2021/08/22 01:05:23;;;;;;;;;;;19.20;99.90;;;;;;5066517;28;20357;-67
2021/08/22 01:07:53;;;;;;;;;;;19.20;99.90;;;;;;5066403;28;19974;-70
2021/08/22 01:10:22;;;;;;;;;;;19.20;99.90;;;;;;5067699;28;19924;-67
2021/08/22 01:12:53;;;;;;;;;;;19.20;99.90;;;;;;5067299;28;19931;-67
2021/08/22 01:15:22;;;;;;;;;;;19.20;99.90;;;;;;5067106;28;19924;-69
2021/08/22 01:17:51;;;;;;;;;;;19.20;99.90;;;;;;5067540;28;20435;-67
2021/08/22 01:20:23;;;;;;;;;;;19.20;99.90;;;;;;5067038;28;19963;-70
2021/08/22 01:22:51;;;;;;;;;;;19.20;99.90;;;;;;5066944;28;19978;-67
2021/08/22 01:25:18;;;;;;;;;;;19.20;99.90;;;;;;5066228;28;20266;-68
2021/08/22 01:27:46;;;;;;;;;;;19.20;99.90;;;;;;5067237;28;20368;-71
2021/08/22 01:30:14;;;;;;;;;;;19.20;99.90;;;;;;5066115;28;19929;-68
2021/08/22 01:32:43;;;;;;;;;;;19.20;99.90;;;;;;5067228;28;19920;-68
2021/08/22 01:35:11;;;;;;;;;;;19.20;99.90;;;;;;5066421;28;20520;-66
2021/08/22 01:37:38;;;;;;;;;;;19.10;99.90;;;;;;5066747;28;19924;-71
2021/08/22 01:40:06;;;;;;;;;;;19.20;99.90;;;;;;5066580;28;19924;-72
2021/08/22 01:42:34;;;;;;;;;;;19.20;99.90;;;;;;5067025;28;19928;-68
2021/08/22 01:45:02;;;;;;;;;;;19.20;99.90;;;;;;5066048;28;19924;-65
2021/08/22 01:47:29;;;;;;;;;;;19.10;99.90;;;;;;5066957;28;19974;-68
2021/08/22 01:49:57;;;;;;;;;;;19.10;99.90;;;;;;5066946;28;20277;-68
2021/08/22 01:52:24;;;;;;;;;;;19.10;99.90;;;;;;5067240;28;19978;-72
2021/08/22 01:54:51;;;;;;;;;;;19.10;99.90;;;;;;5067270;28;19967;-68
2021/08/22 01:57:18;;;;;;;;;;;19.10;99.90;;;;;;5063377;28;19924;-69
2021/08/22 01:59:45;;;;;;;;;;;19.10;99.90;;;;;;5065144;28;20434;-70
2021/08/22 02:02:12;;;;;;;;;;;19.10;99.90;;;;;;5066997;28;20025;-71
2021/08/22 02:04:42;;;;;;;;;;;19.10;99.90;;;;;;5065962;28;19970;-70
2021/08/22 02:07:12;;;;;;;;;;;19.10;99.90;;;;;;5070666;28;19920;-69
2021/08/22 02:09:42;;;;;;;;;;;19.20;99.90;;;;;;5070928;28;19986;-70
2021/08/22 02:12:11;;;;;;;;;;;19.20;99.90;;;;;;5070100;28;19921;-71
2021/08/22 02:14:40;;;;;;;;;;;19.20;99.90;;;;;;5069449;28;19928;-70
2021/08/22 02:17:06;;;;;;;;;;;19.20;99.90;;;;;;5070353;28;19924;-66
2021/08/22 02:19:34;;;;;;;;;;;19.20;99.90;;;;;;5070042;28;19924;-70
2021/08/22 02:22:01;;;;;;;;;;;19.20;99.90;;;;;;5070585;28;20427;-67
2021/08/22 02:24:29;;;;;;;;;;;19.10;99.90;;;;;;5070171;28;20002;-66
2021/08/22 02:26:56;;;;;;;;;;;19.10;99.90;;;;;;5069981;28;19969;-70
2021/08/22 02:29:22;;;;;;;;;;;19.10;99.90;;;;;;5069624;28;20297;-68
2021/08/22 02:31:50;;;;;;;;;;;19.10;99.90;;;;;;5069031;28;19928;-69
2021/08/22 02:34:16;;;;;;;;;;;19.00;99.90;;;;;;5069661;28;20365;-69
2021/08/22 02:36:43;;;;;;;;;;;19.00;99.90;;;;;;5069669;28;19929;-66
2021/08/22 02:39:09;;;;;;;;;;;19.00;99.90;;;;;;5070290;28;19979;-69
2021/08/22 02:41:37;;;;;;;;;;;18.90;99.90;;;;;;5069032;28;19928;-69
2021/08/22 02:44:04;;;;;;;;;;;18.90;99.90;;;;;;5070253;28;19928;-70
2021/08/22 02:46:31;;;;;;;;;;;18.90;99.90;;;;;;5068599;28;19968;-69
2021/08/22 02:48:58;;;;;;;;;;;18.80;99.90;;;;;;5068754;28;20261;-69
2021/08/22 02:51:24;;;;;;;;;;;18.80;99.90;;;;;;5068498;28;19935;-67
2021/08/22 02:53:51;;;;;;;;;;;18.80;99.90;;;;;;5069256;28;19978;-71
2021/08/22 02:56:18;;;;;;;;;;;18.80;99.90;;;;;;5070022;28;19947;-69
2021/08/22 02:58:46;;;;;;;;;;;18.80;99.90;;;;;;5069619;28;20388;-69
2021/08/22 03:01:12;;;;;;;;;;;18.80;99.90;;;;;;5068619;28;19925;-68
2021/08/22 03:03:39;;;;;;;;;;;18.70;99.90;;;;;;5069626;28;19924;-71
2021/08/22 03:06:06;;;;;;;;;;;18.70;99.90;;;;;;5068221;28;19998;-68
2021/08/22 03:08:33;;;;;;;;;;;18.70;99.90;;;;;;5069419;28;19925;-69
2021/08/22 03:10:59;;;;;;;;;;;18.70;99.90;;;;;;5069545;28;19928;-67
2021/08/22 03:13:26;;;;;;;;;;;18.70;99.90;;;;;;5067858;28;19974;-67
2021/08/22 03:15:54;;;;;;;;;;;18.60;99.90;;;;;;5068145;28;20704;-66
2021/08/22 03:18:21;;;;;;;;;;;18.60;99.90;;;;;;5069163;28;19924;-67
2021/08/22 03:20:47;;;;;;;;;;;18.60;99.90;;;;;;5067889;28;19982;-70
2021/08/22 03:23:14;;;;;;;;;;;18.60;99.90;;;;;;5067684;28;19924;-66
2021/08/22 03:25:41;;;;;;;;;;;18.60;99.90;;;;;;5068576;28;19971;-71
2021/08/22 03:28:08;;;;;;;;;;;18.60;99.90;;;;;;5069343;28;19970;-69
2021/08/22 03:30:35;;;;;;;;;;;18.50;99.90;;;;;;5067989;28;19951;-70
2021/08/22 03:33:03;;;;;;;;;;;18.50;99.90;;;;;;5068464;28;19974;-69
2021/08/22 03:35:29;;;;;;;;;;;18.50;99.90;;;;;;5069269;28;19939;-68
2021/08/22 03:37:56;;;;;;;;;;;18.50;99.90;;;;;;5068093;28;20036;-69
2021/08/22 03:40:22;;;;;;;;;;;18.40;99.90;;;;;;5068609;28;19994;-67
2021/08/22 03:42:49;;;;;;;;;;;18.40;99.90;;;;;;5067815;28;19928;-69
2021/08/22 03:45:16;;;;;;;;;;;18.40;99.90;;;;;;5068886;28;19982;-67
2021/08/22 03:47:42;;;;;;;;;;;18.40;99.90;;;;;;5068725;28;19924;-68
2021/08/22 03:50:11;;;;;;;;;;;18.40;99.90;;;;;;5066756;28;19966;-69
2021/08/22 03:52:37;;;;;;;;;;;18.40;99.90;;;;;;5068879;28;19921;-68
2021/08/22 03:55:04;;;;;;;;;;;18.30;99.90;;;;;;5068396;28;19920;-68
2021/08/22 03:57:31;;;;;;;;;;;18.30;99.90;;;;;;5068075;28;19924;-65
2021/08/22 03:59:58;;;;;;;;;;;18.30;99.90;;;;;;5068239;28;20434;-69
2021/08/22 04:02:25;;;;;;;;;;;18.40;99.90;;;;;;5068009;28;19921;-70
2021/08/22 04:05:10;;;;;;;;;;;18.40;99.90;;;;;;5066095;28;19920;-69
2021/08/22 04:07:38;;;;;;;;;;;18.40;99.90;;;;;;5068526;28;19963;-69
2021/08/22 04:10:05;;;;;;;;;;;18.40;99.90;;;;;;5068396;28;19941;-68
2021/08/22 04:12:33;;;;;;;;;;;18.30;99.90;;;;;;5067832;28;20376;-66
2021/08/22 04:14:59;;;;;;;;;;;18.30;99.90;;;;;;5067725;28;19924;-68
2021/08/22 04:17:26;;;;;;;;;;;18.30;99.90;;;;;;5067657;28;19924;-65
2021/08/22 04:19:53;;;;;;;;;;;18.30;99.90;;;;;;5065449;28;19966;-69
2021/08/22 04:22:19;;;;;;;;;;;18.30;99.90;;;;;;5067598;28;20510;-69
2021/08/22 04:24:47;;;;;;;;;;;18.30;99.90;;;;;;5067561;28;20021;-68
2021/08/22 04:27:14;;;;;;;;;;;18.30;99.90;;;;;;5067035;28;19970;-67
2021/08/22 04:29:41;;;;;;;;;;;18.30;99.90;;;;;;5065906;28;19924;-66
2021/08/22 04:32:08;;;;;;;;;;;18.30;99.90;;;;;;5066857;28;20741;-67
2021/08/22 04:34:34;;;;;;;;;;;18.30;99.90;;;;;;5068191;28;19928;-66
2021/08/22 04:37:01;;;;;;;;;;;18.30;99.90;;;;;;5066707;28;19924;-66
2021/08/22 04:39:28;;;;;;;;;;;18.40;99.90;;;;;;5068034;28;20041;-68
2021/08/22 04:41:56;;;;;;;;;;;18.40;99.90;;;;;;5067300;28;19924;-67
2021/08/22 04:44:22;;;;;;;;;;;18.40;99.90;;;;;;5067661;28;19928;-67
2021/08/22 04:46:49;;;;;;;;;;;18.40;99.90;;;;;;5067009;28;19924;-69
2021/08/22 04:49:16;;;;;;;;;;;18.40;99.90;;;;;;5066482;28;19920;-68
2021/08/22 04:51:42;;;;;;;;;;;18.40;99.90;;;;;;5066787;28;19968;-65
2021/08/22 04:54:09;;;;;;;;;;;18.50;99.90;;;;;;5065341;28;19928;-69
2021/08/22 04:56:39;;;;;;;;;;;18.50;99.90;;;;;;5066297;28;19966;-70
2021/08/22 04:59:08;;;;;;;;;;;18.50;99.90;;;;;;5066994;28;19932;-69
2021/08/22 05:01:34;;;;;;;;;;;18.50;99.90;;;;;;5065025;28;19924;-67
2021/08/22 05:04:01;;;;;;;;;;;18.50;99.90;;;;;;5066093;28;19928;-68
2021/08/22 05:06:27;;;;;;;;;;;18.50;99.90;;;;;;5066755;28;19977;-71
2021/08/22 05:08:54;;;;;;;;;;;18.50;99.90;;;;;;5066480;28;19924;-71
2021/08/22 05:11:21;;;;;;;;;;;18.50;99.90;;;;;;5066129;28;19994;-68
2021/08/22 05:13:47;;;;;;;;;;;18.50;99.90;;;;;;5066845;28;19928;-66
2021/08/22 05:16:15;;;;;;;;;;;18.50;99.90;;;;;;5066110;28;20029;-67
2021/08/22 05:18:42;;;;;;;;;;;18.50;99.90;;;;;;5065310;28;20025;-69
2021/08/22 05:21:08;;;;;;;;;;;18.40;99.90;;;;;;5064136;28;19978;-68
2021/08/22 05:23:35;;;;;;;;;;;18.40;99.90;;;;;;5066094;28;20464;-68
2021/08/22 05:26:02;;;;;;;;;;;18.40;99.90;;;;;;5066316;28;20025;-69
2021/08/22 05:28:28;;;;;;;;;;;18.50;99.90;;;;;;5066565;28;20335;-69
2021/08/22 05:30:55;;;;;;;;;;;18.50;99.90;;;;;;5065868;28;20373;-67
2021/08/22 05:33:23;;;;;;;;;;;18.50;99.90;;;;;;5066287;28;19924;-70
2021/08/22 05:35:50;;;;;;;;;;;18.50;99.90;;;;;;5064415;28;19924;-67
2021/08/22 05:38:16;;;;;;;;;;;18.60;99.90;;;;;;5064790;28;19931;-70
2021/08/22 05:40:43;;;;;;;;;;;18.60;99.90;;;;;;5067628;28;19924;-67
2021/08/22 05:43:10;;;;;;;;;;;18.60;99.90;;;;;;5069631;28;19921;-67
2021/08/22 05:45:36;;;;;;;;;;;18.50;99.90;;;;;;5069388;28;20942;-66
2021/08/22 05:48:03;;;;;;;;;;;18.50;99.90;;;;;;5069472;28;20025;-70
2021/08/22 05:50:31;;;;;;;;;;;18.50;99.90;;;;;;5069894;28;20001;-69
2021/08/22 05:52:58;;;;;;;;;;;18.50;99.90;;;;;;5070287;28;19990;-68
2021/08/22 05:55:24;;;;;;;;;;;18.50;99.90;;;;;;5069774;28;19920;-67
2021/08/22 05:57:51;;;;;;;;;;;18.50;99.90;;;;;;5069635;28;19959;-68
2021/08/22 06:00:18;;;;;;;;;;;18.50;99.90;;;;;;5069261;28;19920;-69
2021/08/22 06:02:44;;;;;;;;;;;18.40;99.90;;;;;;5069949;28;19970;-68
2021/08/22 06:05:11;;;;;;;;;;;18.40;99.90;;;;;;5068539;28;19959;-67
2021/08/22 06:07:39;;;;;;;;;;;18.40;99.90;;;;;;5069320;28;19924;-68
2021/08/22 06:10:07;;;;;;;;;;;18.40;99.90;;;;;;5069797;28;20748;-70
2021/08/22 06:12:34;;;;;;;;;;;18.40;99.90;;;;;;5068270;28;20678;-68
2021/08/22 06:15:00;;;;;;;;;;;18.40;99.90;;;;;;5070005;28;19924;-69
2021/08/22 06:17:27;;;;;;;;;;;18.50;99.90;;;;;;5069538;28;19925;-68
2021/08/22 06:19:54;;;;;;;;;;;18.50;99.90;;;;;;5067872;28;19955;-69
2021/08/22 06:22:20;;;;;;;;;;;18.50;99.90;;;;;;5070369;28;19920;-66
2021/08/22 06:24:48;;;;;;;;;;;18.50;99.90;;;;;;5069213;28;20057;-69
2021/08/22 06:27:16;;;;;;;;;;;18.60;99.90;;;;;;5070351;28;19928;-70
2021/08/22 06:29:43;;;;;;;;;;;18.60;99.90;;;;;;5067224;28;19967;-70
2021/08/22 06:32:09;;;;;;;;;;;18.60;99.90;;;;;;5070010;28;20380;-69
2021/08/22 06:34:36;;;;;;;;;;;18.60;99.90;;;;;;5070657;28;19950;-70
2021/08/22 06:37:03;;;;;;;;;;;18.60;99.90;;;;;;5067687;28;19999;-71
2021/08/22 06:39:30;;;;;;;;;;;18.60;99.90;;;;;;5069764;28;19924;-72
2021/08/22 06:41:57;;;;;;;;;;;18.60;99.90;;;;;;5069705;28;20009;-68
2021/08/22 06:44:24;;;;;;;;;;;18.50;99.90;;;;;;5070281;28;19994;-69
2021/08/22 06:46:51;;;;;;;;;;;18.60;99.90;;;;;;5068985;28;19967;-69
2021/08/22 06:49:17;;;;;;;;;;;18.60;99.90;;;;;;5068548;28;19921;-71
2021/08/22 06:51:44;;;;;;;;;;;18.60;99.90;;;;;;5068209;28;19920;-68
2021/08/22 06:54:11;;;;;;;;;;;18.60;99.90;;;;;;5068874;28;20029;-69
2021/08/22 06:56:37;;;;;;;;;;;18.60;99.90;;;;;;5067789;28;20387;-71
2021/08/22 06:59:05;;;;;;;;;;;18.60;99.90;;;;;;5069668;28;19925;-70
2021/08/22 07:01:32;;;;;;;;;;;18.60;99.90;;;;;;5068821;28;19928;-70
2021/08/22 07:03:59;;;;;;;77.57;40.95;;;18.60;99.90;;;;;;5068117;28;20337;-70
2021/08/22 07:06:25;;;;;;;84.00;41.63;;;18.70;99.90;;;;;;5068143;28;20206;-71
2021/08/22 07:08:52;;;;;;;78.10;41.55;;;18.80;99.90;;;;;;5068853;28;20272;-69
2021/08/22 07:11:19;;;;;;;66.95;39.45;;;18.80;99.90;;;;;;5068779;28;20403;-70
2021/08/22 07:13:46;;;;;;;79.28;39.85;;;18.90;99.90;;;;;;5068715;28;20202;-70
2021/08/22 07:16:14;;;;;;;65.38;36.83;;;18.90;99.90;;;;;;5067153;28;20214;-68
2021/08/22 07:18:41;;;;;;;68.15;36.88;;;18.90;99.90;;;;;;5068266;28;20236;-70
2021/08/22 07:21:08;;;;;;;64.93;35.13;;;18.90;99.90;;;;;;5067457;28;20206;-69
2021/08/22 07:23:34;;;;;;;69.47;35.53;;;19.00;99.90;;;;;;5068570;28;20230;-70
2021/08/22 07:26:02;;;;;;;63.47;34.95;;;19.00;99.90;;;;;;5067116;28;20601;-68
2021/08/22 07:28:29;;;;;;;69.65;36.72;;;19.10;99.90;;;;;;5068258;28;20229;-70
2021/08/22 07:30:56;;;;;;;64.40;35.80;;;19.00;99.90;;;;;;5066848;28;20272;-69
2021/08/22 07:33:24;;;;;;;64.95;36.17;;;19.00;99.90;;;;;;5066570;28;20593;-68
2021/08/22 07:35:51;;;;;;;67.63;37.38;;;19.00;99.90;;;;;;5066529;28;20211;-69
2021/08/22 07:38:18;;;;;;;;;;;19.00;99.90;;;;;;5067937;28;20206;-69
2021/08/22 07:40:44;;;;;;;49.80;26.17;;;19.00;99.90;;;;;;5068093;28;20109;-69
2021/08/22 07:43:11;;;;;;;;;;;19.00;99.90;;;;;;5068428;28;20004;-69
2021/08/22 07:45:38;;;;;;;;;;;19.00;99.90;;;;;;5068640;28;19966;-69
2021/08/22 07:48:05;;;;;;;;;;;19.00;99.90;;;;;;5068083;28;20273;-69
2021/08/22 07:50:33;;;;;;;;;;;19.00;99.90;;;;;;5068419;28;20513;-69
2021/08/22 07:53:00;;;;;;;;;;;19.00;99.90;;;;;;5065749;28;20046;-70
2021/08/22 07:55:26;;;;;;;;;;;19.00;99.90;;;;;;5067501;28;19963;-70
2021/08/22 07:57:53;;;;;;;;;;;18.90;99.90;;;;;;5067614;28;19954;-69
2021/08/22 08:00:20;;;;;;;;;;;18.90;99.90;;;;;;5063921;28;19950;-69
2021/08/22 08:02:47;;;;;;;;;;;18.90;99.90;;;;;;5067194;28;19954;-70
2021/08/22 08:05:14;;;;;;;;;;;18.90;99.90;;;;;;5067559;28;19954;-70
2021/08/22 08:07:42;;;;;;;;;;;18.90;99.90;;;;;;5068722;28;19954;-69
2021/08/22 08:10:09;;;;;;;;;;;18.90;99.90;;;;;;5067665;28;20036;-70
2021/08/22 08:12:36;;;;;;;;;;;18.90;99.90;;;;;;5066110;28;19958;-70
2021/08/22 08:15:03;;;;;;;;;;;18.90;99.90;;;;;;5068062;28;19950;-68
2021/08/22 08:17:30;;;;;;;;;;;18.90;99.90;;;;;;5067698;28;19951;-69
2021/08/22 08:19:57;;;;;;;;;;;18.90;99.90;;;;;;5067992;28;20000;-69
2021/08/22 08:22:24;;;;;;;;;;;18.90;99.90;;;;;;5068109;28;20004;-71
2021/08/22 08:24:52;;;;;;;;;;;18.90;99.90;;;;;;5067076;28;20437;-68
2021/08/22 08:27:18;;;;;;;;;;;19.00;99.90;;;;;;5068081;28;20020;-69
2021/08/22 08:29:45;;;;;;;;;;;19.00;99.90;;;;;;5065512;28;20007;-69
2021/08/22 08:32:12;;;;;;;;;;;19.00;99.90;;;;;;5067866;28;19966;-68
2021/08/22 08:34:38;;;;;;;;;;;19.00;99.90;;;;;;5066280;28;19928;-69
2021/08/22 08:37:05;;;;;;;;;;;19.00;99.90;;;;;;5067797;28;19950;-69
2021/08/22 08:39:31;;;;;;;;;;;19.00;99.90;;;;;;5066369;28;19960;-68
2021/08/22 08:42:12;;;;;;;;;;;19.10;99.90;;;;;;5067650;28;19962;-68
2021/08/22 08:44:39;;;;;;;9.75;6.40;;;19.20;99.90;;;;;;5067213;28;20060;-70
2021/08/22 08:47:07;;;;;;;11.82;6.10;;;19.30;99.90;;;;;;5065621;28;20198;-69
2021/08/22 08:49:34;;;;;;;8.63;5.50;;;19.50;99.90;;;;;;5066195;28;20206;-70
2021/08/22 08:52:02;;;;;;;10.43;5.03;;;19.60;99.90;;;;;;5066914;28;20203;-70
2021/08/22 08:54:29;;;;;;;9.30;4.72;;;19.80;99.90;;;;;;5067093;28;20576;-70
2021/08/22 08:56:56;;;;;;;7.10;4.57;;;19.90;99.90;;;;;;5066254;28;20245;-70
2021/08/22 08:59:24;;;;;;;6.75;4.10;;;20.10;99.90;;;;;;5066606;28;20199;-71
2021/08/22 09:01:55;;;;;;;6.75;4.18;;;20.10;99.90;;;;;;5067087;28;20202;-69
2021/08/22 09:04:26;;;;;;;4.38;3.92;;;20.10;99.90;;;;;;5066701;28;20218;-68
2021/08/22 09:07:26;;;;;;;6.70;4.00;;;20.20;99.90;;;;;;5067240;28;20812;-69
2021/08/22 09:10:40;;;;;;;6.80;3.85;;;20.40;99.90;;;;;;5066490;28;20200;-68
2021/08/22 09:13:44;;;;;;;6.85;3.80;;;20.60;99.90;;;;;;5066016;28;20246;-68
2021/08/22 09:16:59;;;;;;;5.97;3.00;;;20.80;99.90;;;;;;5070192;28;20225;-69
2021/08/22 09:20:12;;;;;;;8.88;3.80;;;21.00;99.90;;;;;;5027782;28;25109;-68
2021/08/22 09:23:11;;;;;;;4.50;3.22;;;21.20;99.90;;;;;;5070673;28;20206;-68
2021/08/22 09:26:15;;;;;;;8.48;3.20;;;21.20;99.90;;;;;;5069854;28;20743;-68
2021/08/22 09:29:31;;;;;;;8.32;3.22;;;21.30;99.90;;;;;;5069508;28;20213;-70
2021/08/22 09:32:25;;;;;;;4.72;3.15;;;21.30;99.90;;;;;;5069065;28;20226;-68
2021/08/22 09:35:38;;;;;;;4.03;3.30;;;21.30;99.90;;;;;;5069608;28;20764;-70
2021/08/22 09:38:41;;;;;;;5.63;3.40;;;21.30;99.90;;;;;;5067235;28;20654;-68
2021/08/22 09:41:22;;;;;;;;;;;21.30;99.90;;;;;;5069181;28;20206;-70
2021/08/22 09:47:43;;;;;;;4.40;2.58;;;21.30;99.90;;;;;;5083738;28;20660;-70
2021/08/22 09:50:32;;;;;;;;;;;21.20;99.90;;;;;;5082325;28;20050;-69
2021/08/22 09:53:12;;;;;;;;;;;21.10;99.90;;;;;;5084484;28;19960;-69
2021/08/22 09:56:12;;;;;;;6.55;3.35;;;21.00;99.90;;;;;;5081820;28;20395;-69
2021/08/22 09:59:08;;;;;;;4.75;3.50;;;21.00;99.90;;;;;;5083435;28;20205;-68
2021/08/22 10:02:13;;;;;;;4.53;3.50;;;20.90;99.90;;;;;;5083625;28;20206;-68
2021/08/22 10:04:57;;;;;;;;;;;20.80;99.90;;;;;;5082777;28;20251;-70
2021/08/22 10:07:45;;;;;;;;;;;20.70;99.90;;;;;;5052621;28;19961;-67
2021/08/22 10:10:13;;;;;;;;;;;20.70;99.90;;;;;;5084330;28;19978;-71
2021/08/22 10:12:40;;;;;;;;;;;20.60;99.90;;;;;;5084636;28;19958;-70
2021/08/22 10:15:08;;;;;;;;;;;20.60;99.90;;;;;;5084715;28;20054;-69
2021/08/22 10:17:35;;;;;;;;;;;20.60;99.90;;;;;;5082352;28;19924;-69
2021/08/22 10:20:02;;;;;;;;;;;20.60;99.90;;;;;;5084781;28;19931;-69
2021/08/22 10:22:35;;;;;;;8.43;3.67;;;20.70;99.90;;;;;;5083595;28;20407;-69
2021/08/22 10:25:04;;;;;;;8.63;3.87;;;20.70;99.90;;;;;;5083961;28;20279;-67
2021/08/22 10:27:49;;;;;;;;;;;20.80;99.90;;;;;;5083726;28;19962;-68
2021/08/22 10:30:21;;;;;;;5.22;3.58;;;20.90;99.90;;;;;;5083553;28;20190;-68
2021/08/22 10:33:13;;;;;;;3.42;2.60;;;21.00;99.90;;;;;;5082819;28;20234;-69
2021/08/22 10:35:41;;;;;;;4.15;2.40;;;21.40;99.90;;;;;;5083597;28;20239;-69
2021/08/22 10:38:28;;;;;;;4.82;3.00;;;21.70;99.90;;;;;;5083909;28;20210;-67
2021/08/22 10:40:59;;;;;;;5.32;2.60;;;22.20;99.90;;;;;;5082816;28;20320;-67
2021/08/22 10:43:41;;;;;;;4.50;2.70;;;22.40;99.90;;;;;;5083597;28;20209;-70
2021/08/22 10:46:11;;;;;;;;;;;22.40;99.90;;;;;;5082822;28;20317;-66
2021/08/22 10:48:51;;;;;;;4.55;2.80;;;22.40;99.90;;;;;;5083851;28;19967;-68
2021/08/22 10:51:19;;;;;;;3.60;2.60;;;22.30;99.90;;;;;;5083435;28;20275;-66
2021/08/22 10:53:50;;;;;;;;;;;22.20;99.90;;;;;;5083010;28;20214;-67
2021/08/22 10:56:36;;;;;;;2.78;1.98;;;22.20;99.90;;;;;;5080293;28;20379;-65
2021/08/22 10:59:06;;;;;;;3.90;2.30;;;22.10;99.90;;;;;;5070060;28;20194;-69
2021/08/22 11:01:34;;;;;;;4.82;2.17;;;22.20;99.90;;;;;;5068986;28;20663;-70
2021/08/22 11:04:03;;;;;;;3.17;2.28;;;22.20;99.90;;;;;;5069971;28;20222;-68
2021/08/22 11:06:30;;;;;;;4.35;2.67;;;22.40;99.90;;;;;;5069354;28;20230;-66
2021/08/22 11:08:57;;;;;;;2.40;2.10;;;22.60;99.90;;;;;;5069639;28;20199;-66
2021/08/22 11:11:24;;;;;;;3.38;2.42;;;22.80;99.90;;;;;;5069341;28;20244;-67
2021/08/22 11:13:55;;;;;;;2.90;2.30;;;23.00;99.90;;;;;;5068996;28;20198;-67
2021/08/22 11:16:39;;;;;;;4.35;2.63;;;23.20;99.90;;;;;;5069243;28;20103;-68
2021/08/22 11:19:06;;;;;;;4.00;2.42;;;23.70;99.90;;;;;;5068463;28;20877;-67
2021/08/22 11:21:33;;;;;;;3.13;2.00;;;24.20;99.90;;;;;;5069342;28;20214;-67
2021/08/22 11:24:01;;;;;;;2.90;1.92;;;24.50;99.90;;;;;;5069657;28;20667;-70
2021/08/22 11:26:28;;;;;;;2.80;2.00;;;24.60;99.90;;;;;;5069308;28;20227;-65
2021/08/22 11:28:56;;;;;;;2.25;1.80;;;24.60;99.90;;;;;;5069156;28;20073;-70
2021/08/22 11:31:27;;;;;;;2.70;1.75;;;24.50;99.80;;;;;;5068730;28;20202;-67
2021/08/22 11:33:54;;;;;;;4.35;2.13;;;24.50;99.20;;;;;;5068371;28;20230;-68
2021/08/22 11:36:25;;;;;;;;;;;24.50;98.50;;;;;;5067740;28;20417;-67
2021/08/22 11:39:06;;;;;;;;;;;24.40;98.30;;;;;;5069606;28;19994;-66
2021/08/22 11:41:33;;;;;;;;;;;24.30;98.10;;;;;;5069039;28;19928;-67
2021/08/22 11:43:59;;;;;;;;;;;24.10;98.10;;;;;;5069721;28;19924;-70
2021/08/22 11:46:27;;;;;;;;;;;24.10;97.90;;;;;;5067960;28;19944;-67
2021/08/22 11:48:55;;;;;;;;;;;23.90;97.80;;;;;;5067287;28;19924;-67
2021/08/22 11:51:21;;;;;;;;;;;23.90;98.00;;;;;;5068712;28;20026;-66
2021/08/22 11:53:48;;;;;;;3.75;1.90;;;24.10;98.60;;;;;;5067375;28;20679;-66
2021/08/22 11:56:21;;;;;;;3.97;1.90;;;24.40;98.40;;;;;;5068431;28;20225;-65
2021/08/22 11:58:47;;;;;;;6.97;2.00;;;24.60;97.50;;;;;;5068578;28;20215;-66
2021/08/22 12:01:18;;;;;;;2.67;1.60;;;24.70;97.20;;;;;;5068086;28;20230;-66
2021/08/22 12:03:58;;;;;;;4.70;1.87;;;24.80;96.90;;;;;;5068041;28;20210;-69
2021/08/22 12:06:25;;;;;;;4.57;1.77;;;25.00;96.70;;;;;;5067111;28;20059;-69
2021/08/22 12:08:52;;;;;;;4.95;2.60;;;25.00;96.00;;;;;;5067257;28;20690;-68
2021/08/22 12:11:22;;;;;;;2.85;1.80;;;25.10;95.80;;;;;;5065994;28;20203;-69
2021/08/22 12:13:51;;;;;;;3.88;1.75;;;25.10;95.60;;;;;;5068273;28;20241;-67
2021/08/22 12:16:24;;;;;;;;;;;24.90;95.20;;;;;;5068676;28;20105;-66
2021/08/22 12:18:51;;;;;;;3.90;1.95;;;24.80;95.10;;;;;;5066678;28;20208;-67
2021/08/22 12:21:21;;;;;;;3.63;2.03;;;24.70;95.00;;;;;;5067240;28;20198;-67
2021/08/22 12:23:50;;;;;;;3.42;1.70;;;24.70;95.50;;;;;;5067159;28;20218;-67
2021/08/22 12:26:18;;;;;;;4.50;2.13;;;24.60;95.00;;;;;;5067357;28;20225;-68
2021/08/22 12:28:46;;;;;;;4.18;1.70;;;24.50;95.00;;;;;;5066945;28;20214;-67
2021/08/22 12:31:15;;;;;;;7.22;2.13;;;24.50;94.90;;;;;;5067768;28;20199;-68
2021/08/22 12:33:43;;;;;;;1.98;1.48;;;24.50;94.80;;;;;;5067670;28;20401;-67
2021/08/22 12:36:12;;;;;;;3.97;2.20;;;24.50;94.60;;;;;;5065096;28;20202;-67
2021/08/22 12:38:49;;;;;;;6.03;2.05;;;24.50;94.50;;;;;;5066659;28;20202;-68
2021/08/22 12:41:29;;;;;;;2.72;1.80;;;24.40;94.60;;;;;;5067683;28;20213;-68
2021/08/22 12:43:58;;;;;;;2.30;1.65;;;24.40;94.50;;;;;;5067016;28;20202;-67
2021/08/22 12:46:25;;;;;;;3.22;1.73;;;24.30;94.50;;;;;;5065332;28;20262;-68
2021/08/22 12:48:53;;;;;;;3.65;2.10;;;24.20;94.50;;;;;;5066450;28;20214;-68
2021/08/22 12:51:20;;;;;;;;;;;24.20;94.80;;;;;;5067098;28;20219;-67
2021/08/22 12:53:48;;;;;;;;;;;24.20;94.80;;;;;;5067144;28;20266;-68
2021/08/22 12:56:15;;;;;;;;;;;24.20;94.70;;;;;;5066657;28;20381;-67
2021/08/22 12:58:42;;;;;;;;;;;24.20;94.80;;;;;;5067852;28;19925;-67
2021/08/22 13:01:09;;;;;;;;;;;24.20;94.90;;;;;;5067279;28;20011;-68
2021/08/22 13:03:35;;;;;;;;;;;24.10;94.60;;;;;;5067652;28;19924;-68
2021/08/22 13:06:02;;;;;;;;;;;24.00;94.50;;;;;;5066729;28;19985;-68
2021/08/22 13:08:29;;;;;;;;;;;24.00;94.30;;;;;;5067676;28;19924;-68
2021/08/22 13:10:57;;;;;;;2.10;1.30;;;23.90;94.40;;;;;;5067355;28;20388;-68
2021/08/22 13:13:24;;;;;;;;;;;23.90;94.50;;;;;;5066561;28;19969;-67
2021/08/22 13:15:50;;;;;;;;;;;23.90;94.50;;;;;;5067059;28;19928;-68
2021/08/22 13:18:17;;;;;;;;;;;23.90;94.40;;;;;;5066655;28;19928;-67
2021/08/22 13:20:44;;;;;;;;;;;23.90;94.40;;;;;;5066374;28;20385;-68
2021/08/22 13:23:10;;;;;;;;;;;23.90;94.50;;;;;;5067630;28;19969;-67
2021/08/22 13:25:37;;;;;;;2.13;1.52;;;23.80;94.70;;;;;;5067007;28;20441;-68
2021/08/22 13:28:06;;;;;;;2.70;1.70;;;23.80;94.80;;;;;;5066341;28;20206;-68
2021/08/22 13:30:33;;;;;;;1.90;1.52;;;23.80;95.10;;;;;;5066482;28;20202;-67
2021/08/22 13:32:59;;;;;;;4.20;1.63;;;23.80;95.40;;;;;;5066821;28;20287;-68
2021/08/22 13:35:26;;;;;;;2.47;1.40;;;23.90;95.50;;;;;;5065324;28;20754;-67
2021/08/22 13:37:53;;;;;;;3.08;1.80;;;23.90;95.60;;;;;;5066104;28;20206;-67
2021/08/22 13:40:20;;;;;;;3.47;1.08;;;24.00;95.60;;;;;;5066871;28;20538;-68
2021/08/22 13:42:46;;;;;;;3.20;1.50;;;24.00;95.70;;;;;;5066418;28;20206;-69
2021/08/22 13:45:15;;;;;;;3.85;1.67;;;24.10;95.70;;;;;;5064655;28;20307;-68
2021/08/22 13:47:41;;;;;;;5.20;1.40;;;24.00;95.70;;;;;;5066894;28;20218;-68
2021/08/22 13:50:10;;;;;;;3.47;1.50;;;24.00;95.70;;;;;;5066250;28;20260;-66
2021/08/22 13:52:36;;;;;;;4.63;1.90;;;24.10;96.10;;;;;;5064970;28;20218;-66
2021/08/22 13:55:04;;;;;;;3.60;1.42;;;24.20;95.80;;;;;;5066220;28;20195;-68
2021/08/22 13:57:31;;;;;;;2.03;1.55;;;24.20;95.70;;;;;;5066501;28;20205;-66
2021/08/22 13:59:57;;;;;;;4.05;1.60;;;24.30;95.60;;;;;;5064619;28;20214;-68
2021/08/22 14:02:26;;;;;;;3.60;1.58;;;24.40;95.30;;;;;;5063677;28;20215;-68
2021/08/22 14:04:52;;;;;;;3.30;1.73;;;24.40;95.00;;;;;;5064396;28;20248;-68